Cedar Rapids (CID/KCID)

Map

Destinations

Information

Location
Cedar Rapids, IA
Local Time
19:53 / 7:53 pm
GMT Time
01:53 / 1:53 am
Gates
Unassigned
No FAA reported delays
METAR KCID 250052Z 28008KT 10SM CLR 10/05 A2957 RMK AO2 SLP015 T01000050
TAF KCID 242320Z 2500/2524 30014KT P6SM SCT080 FM250100 31015G25KT P6SM BKN100 FM250600 31013KT P6SM SCT150